Bird City, KS (67731)

11:19 AM CDT on March 30, 2017 (GMT -0500)
Bird City Kansas | | Change Station
Active Advisory: Dense Fog Advisory

Elev 3461 ft 39.75 °N, 101.53 °W | Updated 23 seconds ago

Overcast
Overcast
39.1 °F
Feels Like 35 °F
N
5.0
Wind Variable Wind from NNW
Gusts 8.0 mph

Today
High -- | Low -- °F
--% Chance of Precip.
Yesterday
High -- | Low -- °F
Precip. -- in
Pressure 29.83 in
Visibility 5.0 miles
Clouds Overcast 200 ft
Windchill 35 °F
Dew Point 38 °F
Humidity 95%
Rainfall 0.00 in
Snow Depth Not available.
7:32 AM 8:08 PM
Waxing Crescent, 9% visible
METAR KSYF 301540Z AUTO 00000KT 5SM BR OVC002 03/03 A2983 RMK AO2
Pressure 29.83 in
Visibility 5.0 miles
Clouds Overcast 200 ft
Windchill 35 °F
Dew Point 38 °F
Humidity 95%
Rainfall 0.00 in
Snow Depth Not available.
7:32 AM 8:08 PM
Waxing Crescent, 9% visible
METAR KSYF 301540Z AUTO 00000KT 5SM BR OVC002 03/03 A2983 RMK AO2

Get Your Daily Forecast Email!

Thanks for signing up!

Be on the lookout for a verification email in your inbox.

You'll start receiving severe weather alerts in your inbox..

×

10-Day Weather Forecast

Almanac

Astronomy

Mar. 30, 2017 Rise Set
Actual Time
Civil Twilight
Nautical Twilight
Astronomical Twilight
Moon
Length of Visible Light
Length of Day
Tomorrow will be .
, % of the Moon is Illuminated

Today's Extremes

State Highs State Lows

Community

WunderPhotos

Upload Photos

1,962,540 photos uploaded!

WunderBlog® & News

Nearby

Air Quality

  Air Quality AQ Index Pollutant
Not available.

Snow Depth

Station Depth Elevation

Earthquake Activity

City Distance Mag. Time & Date
Minimum magnitude displayed is 2.5.

Earthquake Activity

City Distance Mag. Time & Date
Minimum magnitude displayed is 2.5.

Coastal Water Temperatures

Place Temperature

Stations

Nearby Weather Stations

Station Location Temp. Windchill Dew Point Humidity Wind Precip. Elev Updated Type
                   

Watches & Warnings

Dense Fog Advisory
Issued: 11:13 AM CDT Mar. 30, 2017 – National Weather Service

... Dense fog advisory is cancelled...

The National Weather Service in Goodland has cancelled the dense
fog advisory.

Visibilities have improved across northwest Kansas and southwest
Nebraska, with dense fog moving northwest of these locations.